Detall de PIREP

Printer-friendly versionPDF version

[2014/09/05 08:00:00]
Flight IATA:CT3213
Pilot Number:042
Company ICAO:CAT
Aircraft Type:F100/A
PAX:38
Aircraft Registration:PFJ
Departing Airport: LHBP
Destination Airport: LEPA
Alternate Airport:LEBL
Online: VATSIM
Route:GILEP UP976 DETSA UM984 DIVKO UN852 VERSO UL129 LUNIK
Flight Level:F330
No Slew and time accel
No pause
Crash detect
Detect pilot in Cockpit between each 30 and 45 minutes
08:00 Zero fuel Weight: 81825 Lbs, Fuel Weight: 22689 Lbs
08:00 VATSIM:LHBP 050730Z 08008KT 040V110 CAVOK 21/13 Q1016 NOSIG
08:00 VATSIM:LEPA 050730Z 02001KT 9999 FEW030 26/21 Q1014 NOSIG
08:03 Parking Brakes off
08:07 Take-off
08:07 Take off Weight: 104105 Lbs
08:07 Wind: 072º @ 008 Knots Heading: 130º
08:07 POS N47º 25´ 58´´ E019º 16´ 40´´
08:07 Gear Up: 174 Knots
08:07 Flaps:2 at 174 Knots
08:08 Flaps:1 at 171 Knots
08:08 Flaps:0 at 254 Knots
08:22 Wind:089º@015 Knots Heading: 250º Ground Speed: 425 Knots Altitude 24393 ft
08:37 Wind:037º@012 Knots Heading: 257º Ground Speed: 456 Knots Altitude 32119 ft
08:52 Wind:141º@014 Knots Heading: 273º Ground Speed: 453 Knots Altitude 32168 ft
09:07 Wind:036º@006 Knots Heading: 235º Ground Speed: 453 Knots Altitude 32093 ft
09:22 Wind:051º@008 Knots Heading: 213º Ground Speed: 457 Knots Altitude 32066 ft
09:37 Wind:046º@006 Knots Heading: 248º Ground Speed: 453 Knots Altitude 32024 ft
09:41 TOC
09:41 Fuel Weight: 13971 Lb
09:52 Wind:329º@013 Knots Heading: 209º Ground Speed: 460 Knots Altitude 33051 ft
09:59 TOD
09:59 Fuel Weight: 12594 Lb
10:07 Wind:159º@011 Knots Heading: 200º Ground Speed: 404 Knots Altitude 23946 ft
10:22 Wind:246º@012 Knots Heading: 273º Ground Speed: 222 Knots Altitude 3005 ft
10:25 Gear Down: 205 Knots
10:25 Flaps:1 at 205 Knots
10:25 Flaps:2 at 204 Knots
10:25 Flaps:3 at 188 Knots
10:28 TouchDown:Rate -299 ft/min Speed: 131 Knots
10:28 VATSIM:LEPA 051000Z 25008KT 210V280 9999 FEW025 29/20 Q1015 NOSIG
10:28 Land
10:28 Wind:268º@008 Knots
10:28 Heading: 235º
10:28 Flight Duration: 02:21
10:28 Landing Weight: 93283 Lbs
10:28 POS N39º 33´ 12´´ E002º 43´ 26´´
10:30 Parking brakes on
10:30 Block to Block Duration: 02:27
10:30 Final Fuel: 11388 Lbls
10:30 Spent Fuel: 11300 Lbls
10:30 Flight Length: 849 NM
10:30 TOD Land Length: 142 NM

Exportar CSV

Powered by Drupal - Modified by Danger4k